Time;durP1;ratioP1;P1;durP2;ratioP2;P2;SDS_P1;SDS_P2;PMS_P1;PMS_P2;Temp;Humidity;BMP_temperature;BMP_pressure;BME280_temperature;BME280_humidity;BME280_pressure;Samples;Min_cycle;Max_cycle;Signal;HPM_P1;HPM_P2
2023/05/30 00:02:19;;;;;;;9.00;2.72;;;;;;;10.00;87.55;102565.34;5109309;28;20027;-72
2023/05/30 00:04:44;;;;;;;10.43;3.22;;;;;;;9.95;87.53;102562.31;5109896;28;20031;-72
2023/05/30 00:07:10;;;;;;;8.70;2.58;;;;;;;9.94;87.80;102555.31;5108852;28;20096;-72
2023/05/30 00:09:35;;;;;;;7.45;2.42;;;;;;;9.89;88.76;102558.41;5109646;28;20458;-72
2023/05/30 00:12:00;;;;;;;10.88;2.28;;;;;;;9.87;88.91;102550.56;5109511;28;20499;-73
2023/05/30 00:14:26;;;;;;;8.27;2.40;;;;;;;9.88;88.92;102556.75;5109911;28;20031;-73
2023/05/30 00:16:52;;;;;;;17.35;3.47;;;;;;;9.83;89.85;102567.00;5109256;28;20106;-72
2023/05/30 00:19:19;;;;;;;10.50;2.83;;;;;;;9.69;90.02;102544.34;5109448;28;20397;-72
2023/05/30 00:21:45;;;;;;;17.60;3.60;;;;;;;9.71;90.59;102549.53;5109531;28;20377;-72
2023/05/30 00:24:11;;;;;;;11.02;2.40;;;;;;;9.68;91.26;102560.50;5109489;28;20016;-72
2023/05/30 00:26:37;;;;;;;10.95;2.45;;;;;;;9.65;91.70;102565.13;5109444;28;20028;-72
2023/05/30 00:29:03;;;;;;;9.32;3.53;;;;;;;9.69;91.02;102573.66;5109522;28;20428;-72
2023/05/30 00:31:30;;;;;;;9.35;3.67;;;;;;;9.65;91.57;102566.97;5109046;28;20042;-72
2023/05/30 00:33:55;;;;;;;11.57;3.45;;;;;;;9.62;92.01;102581.41;5109129;28;20032;-72
2023/05/30 00:36:21;;;;;;;12.25;2.65;;;;;;;9.62;92.03;102568.09;5108736;28;20058;-73
2023/05/30 00:38:46;;;;;;;13.98;3.50;;;;;;;9.49;92.56;102548.13;5108907;28;20043;-73
2023/05/30 00:41:12;;;;;;;8.60;2.58;;;;;;;9.56;92.22;102579.34;5109059;28;20456;-73
2023/05/30 00:43:37;;;;;;;7.47;2.97;;;;;;;9.55;92.78;102572.34;5108790;28;20054;-73
2023/05/30 00:46:04;;;;;;;7.60;2.30;;;;;;;9.50;93.02;102571.09;5090417;28;20039;-73
2023/05/30 00:48:29;;;;;;;12.40;2.65;;;;;;;9.45;93.98;102566.22;5108512;28;20019;-73
2023/05/30 00:50:55;;;;;;;8.25;2.58;;;;;;;9.42;94.16;102561.19;5108784;28;20438;-73
2023/05/30 00:53:21;;;;;;;11.05;2.92;;;;;;;9.44;94.00;102572.53;5108552;28;20043;-73
2023/05/30 00:55:48;;;;;;;11.98;2.05;;;;;;;9.40;94.41;102579.13;5108687;28;20032;-73
2023/05/30 00:58:14;;;;;;;12.32;2.55;;;;;;;9.36;94.66;102573.25;5108757;28;20096;-73
2023/05/30 01:00:40;;;;;;;8.88;2.67;;;;;;;9.36;94.94;102575.09;5104555;28;20016;-73
2023/05/30 01:03:06;;;;;;;10.15;3.63;;;;;;;9.31;95.03;102577.34;5089071;28;20031;-73
2023/05/30 01:05:32;;;;;;;12.35;2.90;;;;;;;9.23;94.52;102564.75;5089143;28;20490;-73
2023/05/30 01:07:58;;;;;;;5.05;2.22;;;;;;;9.30;95.57;102592.50;5089099;28;20032;-73
2023/05/30 01:10:23;;;;;;;16.80;3.30;;;;;;;9.25;95.82;102577.91;5089148;28;20020;-73
2023/05/30 01:13:16;;;;;;;11.15;2.92;;;;;;;9.24;96.87;102579.75;5089030;28;20056;-73
2023/05/30 01:16:06;;;;;;;14.80;3.90;;;;;;;9.22;96.13;102581.69;5089182;28;20027;-73
2023/05/30 01:18:38;;;;;;;7.47;2.80;;;;;;;9.19;96.93;102587.31;5090923;28;20030;-73
2023/05/30 01:21:10;;;;;;;8.07;2.53;;;;;;;9.16;97.12;102579.63;5092778;28;20482;-73
2023/05/30 01:23:54;;;;;;;10.65;3.60;;;;;;;9.18;96.45;102583.00;5092316;28;20024;-73
2023/05/30 01:26:33;;;;;;;13.98;2.95;;;;;;;9.15;96.71;102584.13;5091031;28;20042;-73
2023/05/30 01:29:02;;;;;;;14.38;3.67;;;;;;;9.12;96.72;102583.59;5092772;28;20072;-73
2023/05/30 01:31:29;;;;;;;13.05;4.15;;;;;;;9.07;96.93;102581.34;5092751;28;20561;-73
2023/05/30 01:33:55;;;;;;;7.93;3.50;;;;;;;9.06;97.42;102584.13;5092731;28;20042;-73
2023/05/30 01:36:21;;;;;;;10.75;2.70;;;;;;;9.04;97.89;102589.63;5092282;28;20566;-73
2023/05/30 01:38:46;;;;;;;12.65;3.92;;;;;;;9.00;97.87;102581.06;5074183;28;20028;-73
2023/05/30 01:41:21;;;;;;;8.75;2.63;;;;;;;8.95;98.30;102587.81;5092412;28;20047;-73
2023/05/30 01:44:01;;;;;;;6.75;2.08;;;;;;;8.95;98.57;102580.66;5074163;28;20032;-73
2023/05/30 01:46:34;;;;;;;21.35;4.35;;;;;;;8.95;98.24;102585.97;5092771;28;20050;-73
2023/05/30 01:49:11;;;;;;;14.55;4.65;;;;;;;8.92;98.99;102591.59;5092567;28;20044;-73
2023/05/30 01:51:49;;;;;;;8.60;2.78;;;;;;;8.90;99.54;102590.88;5092080;28;20108;-73
2023/05/30 01:54:17;;;;;;;10.93;3.05;;;;;;;8.88;99.65;102586.69;5091976;28;20039;-73
2023/05/30 01:56:47;;;;;;;10.68;3.08;;;;;;;8.81;99.73;102590.94;5092168;28;20367;-73
2023/05/30 01:59:15;;;;;;;13.27;3.92;;;;;;;8.88;100.00;102600.84;5111598;28;20041;-73
2023/05/30 02:01:41;;;;;;;18.55;5.07;;;;;;;8.85;99.89;102597.63;5111630;28;20072;-73
2023/05/30 02:04:07;;;;;;;13.25;4.20;;;;;;;8.88;100.00;102605.31;5111508;28;20065;-73
2023/05/30 02:06:32;;;;;;;13.10;2.72;;;;;;;8.81;99.79;102604.22;5111495;28;20034;-73
2023/05/30 02:08:57;;;;;;;9.77;3.30;;;;;;;8.81;100.00;102607.72;5111481;28;20038;-73
2023/05/30 02:11:23;;;;;;;17.15;3.80;;;;;;;8.81;100.00;102613.03;5111324;28;20059;-73
2023/05/30 02:13:48;;;;;;;8.77;3.70;;;;;;;8.75;100.00;102608.25;5111243;28;20473;-73
2023/05/30 02:16:15;;;;;;;15.32;3.63;;;;;;;8.71;100.00;102609.53;5111585;28;20023;-73
2023/05/30 02:18:41;;;;;;;9.23;3.42;;;;;;;8.68;100.00;102602.69;5093263;28;20466;-73
2023/05/30 02:21:07;;;;;;;8.68;3.92;;;;;;;8.67;100.00;102605.47;5092893;28;20031;-73
2023/05/30 02:23:34;;;;;;;11.27;3.97;;;;;;;8.64;100.00;102616.41;5092796;28;20052;-73
2023/05/30 02:26:00;;;;;;;19.92;3.70;;;;;;;8.61;100.00;102617.53;5110986;28;20430;-73
2023/05/30 02:28:25;;;;;;;12.85;4.00;;;;;;;8.58;100.00;102614.31;5111007;28;20141;-73
2023/05/30 02:30:50;;;;;;;9.90;3.70;;;;;;;8.51;100.00;102603.38;5110089;28;20042;-73
2023/05/30 02:33:16;;;;;;;10.68;4.30;;;;;;;8.42;100.00;102588.28;5089591;28;20398;-73
2023/05/30 02:35:41;;;;;;;11.35;4.70;;;;;;;8.45;100.00;102610.09;5091330;28;20062;-73
2023/05/30 02:38:06;;;;;;;8.90;3.55;;;;;;;8.49;100.00;102608.03;5091226;28;20111;-72
2023/05/30 02:40:32;;;;;;;9.98;3.25;;;;;;;8.43;100.00;102600.59;5091295;28;20497;-72
2023/05/30 02:42:57;;;;;;;9.43;3.53;;;;;;;8.34;100.00;102592.44;5056503;28;20601;-72
2023/05/30 02:45:22;;;;;;;10.63;3.30;;;;;;;8.38;100.00;102608.94;5091175;28;20397;-72
2023/05/30 02:47:48;;;;;;;11.27;3.88;;;;;;;8.38;100.00;102616.06;5091183;28;20483;-72
2023/05/30 02:50:13;;;;;;;16.88;3.30;;;;;;;8.35;100.00;102611.88;5072854;28;20450;-72
2023/05/30 02:52:38;;;;;;;20.88;3.30;;;;;;;8.31;100.00;102613.16;5091040;28;20137;-72
2023/05/30 02:55:04;;;;;;;13.13;3.35;;;;;;;8.27;100.00;102601.94;5091085;28;20028;-72
2023/05/30 02:57:30;;;;;;;16.05;4.35;;;;;;;8.27;100.00;102601.94;5090950;28;20059;-72
2023/05/30 02:59:56;;;;;;;14.02;4.75;;;;;;;8.30;100.00;102592.84;5090937;28;20109;-72
2023/05/30 03:02:21;;;;;;;13.98;2.97;;;;;;;8.36;100.00;102608.25;5090781;28;20024;-72
2023/05/30 03:04:46;;;;;;;11.18;3.60;;;;;;;8.36;100.00;102602.94;5090769;28;20032;-72
2023/05/30 03:07:13;;;;;;;13.48;3.75;;;;;;;8.29;100.00;102597.31;5090882;28;20107;-72
2023/05/30 03:09:39;;;;;;;11.15;3.13;;;;;;;8.37;100.00;102601.94;5090721;28;20024;-72
2023/05/30 03:12:05;;;;;;;14.05;3.38;;;;;;;8.38;100.00;102611.59;5090764;28;20036;-73
2023/05/30 03:14:30;;;;;;;13.73;6.55;;;;;;;8.36;100.00;102610.91;5090749;28;20099;-73
2023/05/30 03:16:56;;;;;;;10.68;3.00;;;;;;;8.40;100.00;102607.00;5090609;28;20100;-73
2023/05/30 03:19:21;;;;;;;10.77;3.28;;;;;;;8.40;100.00;102604.34;5090443;28;20032;-72
2023/05/30 03:21:49;;;;;;;14.82;5.82;;;;;;;8.41;100.00;102615.81;5090509;28;20096;-72
2023/05/30 03:24:15;;;;;;;9.93;3.30;;;;;;;8.44;100.00;102619.06;5090515;28;20028;-72
2023/05/30 03:26:40;;;;;;;10.60;3.67;;;;;;;8.45;100.00;102615.41;5072273;28;20035;-72
2023/05/30 03:29:07;;;;;;;10.88;3.95;;;;;;;8.44;100.00;102621.72;5090622;28;20147;-72
2023/05/30 03:31:33;;;;;;;10.07;3.47;;;;;;;8.46;100.00;102627.75;5072481;28;20038;-72
2023/05/30 03:34:00;;;;;;;11.35;3.47;;;;;;;8.42;100.00;102623.69;5090092;28;20028;-72
2023/05/30 03:36:25;;;;;;;14.88;3.72;;;;;;;8.46;100.00;102633.06;5089997;28;20051;-72
2023/05/30 03:38:53;;;;;;;9.38;4.13;;;;;;;8.46;100.00;102630.41;5090078;28;20040;-72
2023/05/30 03:41:18;;;;;;;18.40;4.10;;;;;;;8.44;100.00;102629.69;5090074;28;20032;-72
2023/05/30 03:43:43;;;;;;;14.65;4.18;;;;;;;8.56;100.00;102635.72;5090267;28;20032;-72
2023/05/30 03:46:09;;;;;;;11.10;3.33;;;;;;;8.54;100.00;102641.19;5090063;28;20036;-72
2023/05/30 03:48:34;;;;;;;14.95;4.40;;;;;;;8.54;100.00;102629.69;5090021;28;20032;-72
2023/05/30 03:51:00;;;;;;;12.70;4.22;;;;;;;8.60;100.00;102633.63;5089920;28;20085;-72
2023/05/30 03:53:25;;;;;;;16.35;3.92;;;;;;;8.64;100.00;102638.50;5071540;28;20036;-72
2023/05/30 03:55:50;;;;;;;14.13;4.55;;;;;;;8.70;100.00;102645.94;5071267;28;20032;-72
2023/05/30 03:58:16;;;;;;;20.95;6.35;;;;;;;8.77;100.00;102651.53;5089825;28;20077;-72
2023/05/30 04:00:41;;;;;;;13.52;5.72;;;;;;;8.83;100.00;102651.00;5089859;28;20496;-72
2023/05/30 04:03:06;;;;;;;10.43;3.15;;;;;;;8.81;100.00;102644.13;5089865;28;20513;-73
2023/05/30 04:05:32;;;;;;;11.30;3.45;;;;;;;8.87;100.00;102652.38;5089668;28;20565;-73
2023/05/30 04:07:57;;;;;;;15.00;5.45;;;;;;;8.86;100.00;102642.72;5089678;28;20024;-73
2023/05/30 04:10:23;;;;;;;10.20;3.17;;;;;;;8.84;100.00;102643.84;5089671;28;20060;-73
2023/05/30 04:12:48;;;;;;;18.95;6.25;;;;;;;8.91;100.00;102647.63;5089676;28;20057;-73
2023/05/30 04:15:13;;;;;;;13.98;3.78;;;;;;;8.95;100.00;102647.19;5089702;28;20496;-73
2023/05/30 04:17:40;;;;;;;14.20;4.70;;;;;;;8.96;100.00;102638.25;5089784;28;20684;-73
2023/05/30 04:20:09;;;;;;;11.50;3.85;;;;;;;9.03;100.00;102648.31;5089654;28;20497;-73
2023/05/30 04:22:34;;;;;;;10.77;3.53;;;;;;;9.03;100.00;102653.63;5089543;28;20390;-73
2023/05/30 04:25:00;;;;;;;9.45;3.60;;;;;;;8.99;100.00;102650.41;5089542;28;20032;-73
2023/05/30 04:27:25;;;;;;;10.40;4.57;;;;;;;9.03;100.00;102658.94;5089436;28;20028;-73
2023/05/30 04:29:50;;;;;;;11.40;4.13;;;;;;;9.05;100.00;102649.00;5089482;28;20437;-73
2023/05/30 04:32:16;;;;;;;15.60;3.60;;;;;;;9.04;100.00;102650.84;5089363;28;20470;-73
2023/05/30 04:34:42;;;;;;;12.35;4.28;;;;;;;9.10;100.00;102646.75;5089388;28;20384;-73
2023/05/30 04:37:07;;;;;;;10.75;4.68;;;;;;;9.15;100.00;102658.66;5089443;28;20376;-73
2023/05/30 04:39:35;;;;;;;14.85;3.70;;;;;;;9.22;100.00;102658.91;5089340;28;20040;-73
2023/05/30 04:42:00;;;;;;;14.77;4.55;;;;;;;9.21;100.00;102643.94;5089474;28;20103;-73
2023/05/30 04:44:25;;;;;;;11.27;3.95;;;;;;;9.28;100.00;102655.69;5089160;28;20024;-73
2023/05/30 04:46:51;;;;;;;11.43;4.45;;;;;;;9.20;100.00;102651.09;5089059;28;20031;-73
2023/05/30 04:49:16;;;;;;;10.65;3.58;;;;;;;9.20;100.00;102640.44;5088521;28;20110;-73
2023/05/30 04:51:43;;;;;;;23.20;6.45;;;;;;;9.26;100.00;102647.00;5089250;28;20097;-73
2023/05/30 04:54:08;;;;;;;15.82;4.85;;;;;;;9.31;100.00;102651.91;5092268;28;20028;-73
2023/05/30 04:56:34;;;;;;;9.93;3.95;;;;;;;9.30;100.00;102644.88;5093214;28;20475;-73
2023/05/30 04:59:00;;;;;;;16.73;5.28;;;;;;;9.36;100.00;102647.00;5093217;28;20031;-73
2023/05/30 05:01:25;;;;;;;15.88;5.15;;;;;;;9.41;100.00;102647.41;5093107;28;20593;-73
2023/05/30 05:03:51;;;;;;;13.52;4.90;;;;;;;9.44;100.00;102647.09;5093388;28;20024;-73
2023/05/30 05:06:17;;;;;;;12.52;4.30;;;;;;;9.47;100.00;102649.47;5079649;28;20474;-73
2023/05/30 05:08:42;;;;;;;14.73;4.35;;;;;;;9.46;100.00;102642.47;5112923;28;20024;-73
2023/05/30 05:11:08;;;;;;;12.77;4.30;;;;;;;9.43;100.00;102640.94;5100082;28;20558;-72
2023/05/30 05:13:35;;;;;;;17.02;4.93;;;;;;;9.52;100.00;102643.72;5093321;28;20074;-72
2023/05/30 05:16:00;;;;;;;9.63;3.38;;;;;;;9.57;100.00;102641.47;5093130;28;20028;-72
2023/05/30 05:18:27;;;;;;;12.52;5.40;;;;;;;9.55;100.00;102638.09;5093103;28;20991;-72
2023/05/30 05:20:52;;;;;;;14.60;4.57;;;;;;;9.60;100.00;102641.16;5074716;28;20032;-72
2023/05/30 05:23:17;;;;;;;14.38;4.28;;;;;;;9.62;100.00;102632.03;5075065;28;20028;-72
2023/05/30 05:25:43;;;;;;;12.57;4.38;;;;;;;9.64;100.00;102642.53;5077310;28;20035;-72
2023/05/30 05:28:08;;;;;;;11.77;4.43;;;;;;;9.59;100.00;102627.00;5093118;28;20378;-72
2023/05/30 05:30:34;;;;;;;12.75;4.65;;;;;;;9.66;100.00;102644.06;5074175;28;20032;-72
2023/05/30 05:32:59;;;;;;;12.13;4.63;;;;;;;9.68;100.00;102638.59;5074803;28;20032;-72
2023/05/30 05:35:24;;;;;;;11.57;3.80;;;;;;;9.75;100.00;102655.69;5092579;28;20461;-72
2023/05/30 05:37:50;;;;;;;14.35;5.05;;;;;;;9.78;100.00;102658.06;5092896;28;20887;-72
2023/05/30 05:40:16;;;;;;;15.43;5.82;;;;;;;9.86;100.00;102654.66;5098393;28;20036;-72
2023/05/30 05:42:44;;;;;;;14.18;5.85;;;;;;;9.91;100.00;102652.38;5100592;28;20542;-72
2023/05/30 05:45:10;;;;;;;16.40;4.78;;;;;;;9.94;100.00;102643.25;5092641;28;20050;-72
2023/05/30 05:47:35;;;;;;;20.35;5.28;;;;;;;9.97;100.00;102642.97;5074508;28;20032;-72
2023/05/30 05:50:01;;;;;;;17.52;6.70;;;;;;;10.12;100.00;102644.13;5092542;28;20107;-72
2023/05/30 05:52:26;;;;;;;12.18;4.43;;;;;;;10.17;98.55;102651.69;5092509;28;20028;-72
2023/05/30 05:54:52;;;;;;;13.60;4.63;;;;;;;10.19;97.97;102660.34;5092545;28;20047;-72
2023/05/30 05:57:18;;;;;;;20.83;4.63;;;;;;;10.19;97.31;102655.03;5092310;28;20071;-72
2023/05/30 05:59:43;;;;;;;13.18;5.22;;;;;;;10.21;97.07;102666.38;5092262;28;20488;-72
2023/05/30 06:02:08;;;;;;;13.45;4.72;;;;;;;10.24;96.49;102655.41;5092137;28;20023;-71
2023/05/30 06:04:34;;;;;;;17.45;4.93;;;;;;;10.21;94.49;102647.72;5084515;28;20481;-71
2023/05/30 06:07:00;;;;;;;8.02;3.97;;;;;;;10.34;94.68;102658.91;5111782;28;20146;-72
2023/05/30 06:09:30;;;;;;;19.42;5.38;;;;;;;10.40;94.11;102660.13;5107547;28;20416;-72
2023/05/30 06:11:57;;;;;;;12.40;5.55;;;;;;;10.47;93.19;102671.88;5108726;28;20038;-72
2023/05/30 06:14:22;;;;;;;12.30;4.85;;;;;;;10.49;93.62;102659.22;5111294;28;20038;-72
2023/05/30 06:16:48;;;;;;;12.23;5.32;;;;;;;10.56;94.39;102664.78;5093380;28;20024;-73
2023/05/30 06:19:13;;;;;;;12.55;5.45;;;;;;;10.57;94.09;102653.13;5092061;28;20118;-72
2023/05/30 06:21:39;;;;;;;10.88;4.03;;;;;;;10.62;92.62;102666.88;5073537;28;20031;-72
2023/05/30 06:24:05;;;;;;;14.55;5.88;;;;;;;10.63;92.43;102666.69;5073505;28;20035;-72
2023/05/30 06:26:31;;;;;;;14.27;4.95;;;;;;;10.63;92.12;102657.84;5105321;28;20032;-73
2023/05/30 06:28:56;;;;;;;12.85;4.15;;;;;;;10.66;91.99;102665.56;5104333;28;20046;-77
2023/05/30 06:31:22;;;;;;;15.32;4.28;;;;;;;10.69;92.69;102665.28;5095971;28;20028;-76
2023/05/30 06:33:47;;;;;;;9.93;3.75;;;;;;;10.69;91.74;102670.59;5095415;28;20065;-72
2023/05/30 06:36:12;;;;;;;11.05;4.13;;;;;;;10.69;91.18;102665.28;5099630;28;20196;-74
2023/05/30 06:38:38;;;;;;;10.25;4.15;;;;;;;10.71;92.19;102658.75;5111172;28;20470;-72
2023/05/30 06:41:03;;;;;;;16.70;5.60;;;;;;;10.76;91.09;102663.66;5110982;28;20028;-72
2023/05/30 06:43:29;;;;;;;12.40;4.82;;;;;;;10.81;91.49;102671.19;5111101;28;20019;-72
2023/05/30 06:45:54;;;;;;;14.95;5.03;;;;;;;10.86;91.28;102663.56;5092588;28;20493;-73
2023/05/30 06:48:19;;;;;;;10.75;4.28;;;;;;;10.88;90.62;102665.09;5111004;28;20116;-72
2023/05/30 06:50:45;;;;;;;11.30;4.82;;;;;;;10.92;90.44;102677.13;5092403;28;20106;-71
2023/05/30 06:53:10;;;;;;;9.35;4.30;;;;;;;11.01;90.52;102658.53;5110750;28;20063;-71
2023/05/30 06:55:36;;;;;;;10.68;3.55;;;;;;;11.09;89.64;102664.75;5110982;28;20089;-72
2023/05/30 06:58:04;;;;;;;13.15;4.40;;;;;;;11.16;88.44;102671.16;5101782;28;20043;-72
2023/05/30 07:00:29;;;;;;;9.75;4.32;;;;;;;11.22;88.60;102679.56;5090769;28;20021;-72
2023/05/30 07:02:55;;;;;;;8.18;3.97;;;;;;;11.34;87.34;102676.47;5079175;28;20038;-72
2023/05/30 07:05:20;;;;;;;12.43;3.97;;;;;;;11.30;87.96;102676.94;5110184;28;20645;-72
2023/05/30 07:07:46;;;;;;;7.25;3.42;;;;;;;11.38;87.71;102682.31;5110528;28;20401;-74
2023/05/30 07:10:12;;;;;;;12.40;5.22;;;;;;;11.38;87.29;102685.00;5110552;28;20485;-75
2023/05/30 07:12:38;;;;;;;8.25;4.60;;;;;;;11.36;87.09;102670.97;5110205;28;20397;-72
2023/05/30 07:15:05;;;;;;;10.65;5.10;;;;;;;11.38;86.46;102682.31;5110143;28;20043;-72
2023/05/30 07:17:31;;;;;;;12.27;3.88;;;;;;;11.28;86.84;102677.06;5099581;28;20694;-71
2023/05/30 07:19:56;;;;;;;10.63;4.68;;;;;;;11.36;86.61;102685.16;5094871;28;20020;-69
2023/05/30 07:22:22;;;;;;;12.85;3.95;;;;;;;11.30;86.45;102688.44;5096262;28;20036;-69
2023/05/30 07:24:47;;;;;;;11.82;3.90;;;;;;;11.36;86.08;102687.81;5094624;28;20421;-69
2023/05/30 07:27:12;;;;;;;10.38;3.97;;;;;;;11.36;85.72;102684.31;5095022;28;20027;-71
2023/05/30 07:29:37;;;;;;;14.70;5.82;;;;;;;11.43;85.65;102692.56;5076777;28;20028;-70
2023/05/30 07:32:03;;;;;;;10.48;3.85;;;;;;;11.46;84.79;102686.88;5093980;28;20031;-72
2023/05/30 07:34:28;;;;;;;9.95;4.00;;;;;;;11.51;84.47;102688.09;5073939;28;20521;-72
2023/05/30 07:36:54;;;;;;;9.57;3.78;;;;;;;11.49;84.75;102690.06;5095627;28;20036;-73
2023/05/30 07:39:19;;;;;;;16.13;4.30;;;;;;;11.51;85.13;102703.28;5074821;28;20116;-68
2023/05/30 07:41:45;;;;;;;9.88;4.40;;;;;;;11.60;84.86;102687.13;5095527;28;20051;-72
2023/05/30 07:44:10;;;;;;;13.18;4.30;;;;;;;11.83;84.26;102692.78;5095126;28;20069;-71
2023/05/30 07:46:35;;;;;;;8.70;4.68;;;;;;;12.08;83.15;102690.25;5094840;28;20042;-71
2023/05/30 07:49:01;;;;;;;11.50;4.20;;;;;;;12.27;82.91;102692.66;5093943;28;20031;-72
2023/05/30 07:51:26;;;;;;;9.57;3.47;;;;;;;12.40;81.62;102692.19;5108772;28;20058;-70
2023/05/30 07:53:51;;;;;;;13.98;4.90;;;;;;;12.53;82.08;102691.72;5092513;28;20020;-70
2023/05/30 07:56:18;;;;;;;12.15;4.38;;;;;;;12.54;80.03;102700.59;5085652;28;20076;-69
2023/05/30 07:58:43;;;;;;;12.82;4.40;;;;;;;12.49;80.24;102693.03;5089780;28;20118;-70
2023/05/30 08:01:09;;;;;;;10.55;4.05;;;;;;;12.45;79.21;102691.72;5090126;28;20035;-70
2023/05/30 08:03:34;;;;;;;8.10;4.80;;;;;;;12.45;80.38;102692.53;5089344;28;20028;-70
2023/05/30 08:05:59;;;;;;;14.48;6.03;;;;;;;12.56;81.17;102696.75;5090072;28;20144;-70
2023/05/30 08:08:25;;;;;;;14.70;4.75;;;;;;;12.54;78.75;102693.38;5090037;28;20039;-70
2023/05/30 08:10:51;;;;;;;16.70;5.40;;;;;;;12.55;79.93;102686.19;5072041;28;20027;-70
2023/05/30 08:13:18;;;;;;;11.13;4.50;;;;;;;12.61;78.50;102681.03;5089846;28;20081;-70
2023/05/30 08:15:44;;;;;;;12.60;4.07;;;;;;;13.80;76.33;102682.28;5071484;28;20052;-71
2023/05/30 08:18:10;;;;;;;13.15;5.00;;;;;;;14.56;72.10;102679.91;5071710;28;20417;-70
2023/05/30 08:20:36;;;;;;;9.93;4.65;;;;;;;14.77;70.69;102681.94;5089624;28;20744;-70
2023/05/30 08:23:02;;;;;;;11.32;4.53;;;;;;;15.33;68.46;102672.56;5089932;28;20035;-70
2023/05/30 08:25:32;;;;;;;10.20;4.40;;;;;;;16.74;62.87;102676.00;5089801;28;20043;-70
2023/05/30 08:27:59;;;;;;;13.15;4.55;;;;;;;17.64;58.66;102679.81;5089179;28;20628;-70
2023/05/30 08:30:24;;;;;;;9.02;4.68;;;;;;;17.02;59.31;102680.59;5089728;28;20056;-70
2023/05/30 08:32:50;;;;;;;9.68;3.63;;;;;;;16.55;60.73;102677.44;5089384;28;20051;-70
2023/05/30 08:35:15;;;;;;;9.35;4.55;;;;;;;16.61;61.75;102673.16;5088254;28;20063;-74
2023/05/30 08:37:41;;;;;;;13.48;4.40;;;;;;;16.89;61.04;102673.25;5070932;28;20936;-70
2023/05/30 08:40:10;;;;;;;11.48;4.95;;;;;;;17.83;58.77;102675.56;5089401;28;20031;-71
2023/05/30 08:42:37;;;;;;;20.55;4.97;;;;;;;17.72;57.12;102676.13;5089591;28;20093;-70
2023/05/30 08:45:04;;;;;;;14.15;4.60;;;;;;;17.02;58.57;102662.56;5089260;28;20048;-70
2023/05/30 08:47:31;;;;;;;8.88;4.75;;;;;;;17.05;58.25;102667.56;5101543;28;20035;-70
2023/05/30 08:49:58;;;;;;;11.55;4.80;;;;;;;17.11;58.22;102673.19;5109066;28;20061;-70
2023/05/30 08:52:27;;;;;;;13.25;4.93;;;;;;;18.06;55.93;102667.16;5108903;28;20069;-70
2023/05/30 08:55:03;;;;;;;12.27;4.10;;;;;;;18.73;54.62;102656.50;5109035;28;20051;-70
2023/05/30 08:57:35;;;;;;;13.50;4.82;;;;;;;19.45;51.36;102650.22;5108900;28;20115;-70
2023/05/30 09:00:05;;;;;;;13.63;5.03;;;;;;;18.70;51.84;102652.34;5109063;28;20019;-70
2023/05/30 09:02:32;;;;;;;8.32;4.47;;;;;;;17.68;55.53;102658.66;5108917;28;20026;-70
2023/05/30 09:04:59;;;;;;;12.63;5.72;;;;;;;16.65;58.07;102644.81;5108755;28;20120;-70
2023/05/30 09:07:27;;;;;;;12.10;4.20;;;;;;;16.03;61.23;102648.91;5108918;28;20031;-71
2023/05/30 09:09:53;;;;;;;12.88;5.40;;;;;;;15.85;62.22;102648.47;5108991;28;20028;-71
2023/05/30 09:12:19;;;;;;;17.40;4.95;;;;;;;15.53;63.56;102658.56;5090248;28;20032;-70
2023/05/30 09:14:44;;;;;;;12.40;5.65;;;;;;;15.20;64.29;102647.34;5108779;28;20465;-70
2023/05/30 09:17:09;;;;;;;12.68;5.45;;;;;;;15.15;66.12;102639.81;5090588;28;20031;-70
2023/05/30 09:19:37;;;;;;;10.18;4.95;;;;;;;15.24;65.64;102641.38;5108935;28;20369;-70
2023/05/30 09:22:04;;;;;;;12.93;5.18;;;;;;;15.20;65.65;102637.41;5106995;28;20066;-71
2023/05/30 09:24:59;;;;;;;15.60;5.03;;;;;;;15.10;66.52;102639.53;5089270;28;20016;-71
2023/05/30 09:27:26;;;;;;;11.05;4.13;;;;;;;15.23;66.62;102638.91;5089200;28;20089;-71
2023/05/30 09:29:52;;;;;;;18.10;5.97;;;;;;;15.24;65.35;102646.75;5089275;28;20519;-70
2023/05/30 09:32:20;;;;;;;11.02;4.90;;;;;;;15.09;65.33;102637.84;5089224;28;20115;-71
2023/05/30 09:34:54;;;;;;;13.32;4.75;;;;;;;15.04;65.87;102642.97;5089065;28;20024;-71
2023/05/30 09:37:19;;;;;;;15.95;5.07;;;;;;;14.77;66.08;102631.75;5088841;28;20047;-70
2023/05/30 09:40:04;;;;;;;10.82;4.45;;;;;;;15.04;68.06;102622.28;5091286;28;20050;-70
2023/05/30 09:42:41;;;;;;;16.10;5.53;;;;;;;15.03;66.51;102619.78;5092361;28;20020;-70
2023/05/30 09:45:14;;;;;;;13.77;5.75;;;;;;;15.09;66.32;102624.41;5092733;28;20116;-70
2023/05/30 09:47:47;;;;;;;20.83;5.80;;;;;;;15.18;68.54;102623.31;5092525;28;20031;-70
2023/05/30 09:50:15;;;;;;;11.18;4.47;;;;;;;15.25;66.99;102607.31;5092648;28;20074;-70
2023/05/30 09:52:42;;;;;;;9.18;4.57;;;;;;;15.31;64.27;102620.00;5092505;28;20046;-70
2023/05/30 09:55:09;;;;;;;14.75;6.50;;;;;;;15.42;66.87;102608.78;5092519;28;20032;-70
2023/05/30 09:57:36;;;;;;;11.95;5.07;;;;;;;15.46;64.68;102614.63;5092595;28;20039;-70
2023/05/30 10:00:15;;;;;;;14.05;5.40;;;;;;;15.44;65.21;102622.03;5092195;28;20016;-70
2023/05/30 10:02:43;;;;;;;12.57;4.82;;;;;;;15.47;64.23;102617.13;5092457;28;20069;-72
2023/05/30 10:05:22;;;;;;;12.65;5.57;;;;;;;15.64;64.93;102616.91;5092152;28;20036;-71
2023/05/30 10:07:50;;;;;;;10.52;4.30;;;;;;;15.87;63.49;102614.13;5092232;28;20046;-71
2023/05/30 10:10:15;;;;;;;12.50;4.75;;;;;;;15.84;63.36;102606.44;5092251;28;20024;-71
2023/05/30 10:12:42;;;;;;;14.75;5.07;;;;;;;15.74;61.95;102604.88;5092013;28;20034;-70
2023/05/30 10:15:09;;;;;;;8.60;4.82;;;;;;;15.86;65.18;102605.25;5092222;28;20058;-70
2023/05/30 10:17:38;;;;;;;16.40;5.07;;;;;;;16.00;62.36;102611.59;5092094;28;20393;-70
2023/05/30 10:20:09;;;;;;;15.20;4.82;;;;;;;16.04;63.32;102607.53;5104346;28;20035;-71
2023/05/30 10:22:42;;;;;;;14.05;5.15;;;;;;;16.12;63.84;102601.19;5092146;28;20364;-70
2023/05/30 10:25:08;;;;;;;12.63;4.93;;;;;;;16.11;61.74;102604.88;5092118;28;20508;-70
2023/05/30 10:27:41;;;;;;;10.75;5.47;;;;;;;16.13;62.58;102606.38;5091909;28;20110;-69
2023/05/30 10:30:08;;;;;;;13.38;5.38;;;;;;;16.18;60.97;102609.31;5091731;28;20862;-74
2023/05/30 10:32:38;;;;;;;11.35;4.30;;;;;;;16.35;62.08;102592.94;5093190;28;20149;-76
2023/05/30 10:35:12;;;;;;;11.80;4.18;;;;;;;16.38;60.58;102604.16;5095792;28;20023;-70
2023/05/30 10:37:39;;;;;;;13.93;5.78;;;;;;;16.31;61.51;102605.09;5094144;28;20181;-74
2023/05/30 10:40:25;;;;;;;11.88;5.63;;;;;;;16.32;61.83;102593.31;5096582;28;20023;-73
2023/05/30 10:43:08;;;;;;;11.88;5.30;;;;;;;16.52;60.97;102590.81;5096545;28;20062;-71
2023/05/30 10:46:03;;;;;;;10.93;4.55;;;;;;;16.64;60.68;102595.47;5096229;28;20035;-72
2023/05/30 10:48:50;;;;;;;19.00;6.82;;;;;;;16.78;62.63;102580.28;5096124;28;20485;-74
2023/05/30 10:51:16;;;;;;;14.32;5.28;;;;;;;16.98;60.68;102590.41;5095725;28;20885;-71
2023/05/30 10:53:46;;;;;;;12.52;5.30;;;;;;;17.02;58.40;102589.78;5096182;28;20020;-71
2023/05/30 10:56:33;;;;;;;14.38;5.00;;;;;;;17.06;60.39;102584.84;5096109;28;20035;-72
2023/05/30 10:59:00;;;;;;;10.38;5.30;;;;;;;17.09;59.19;102596.06;5095989;28;20020;-76
2023/05/30 11:01:27;;;;;;;13.93;5.20;;;;;;;17.13;60.30;102584.88;5093903;28;20028;-76
2023/05/30 11:04:12;;;;;;;16.95;6.05;;;;;;;17.07;59.94;102584.63;5094312;28;20034;-74
2023/05/30 11:06:42;;;;;;;15.45;5.78;;;;;;;16.93;59.91;102582.06;5094013;28;20123;-72
2023/05/30 11:09:11;;;;;;;14.10;5.60;;;;;;;17.03;61.20;102579.84;5103292;28;20023;-73
2023/05/30 11:11:41;;;;;;;16.90;5.07;;;;;;;17.07;59.63;102576.53;5110246;28;20028;-73
2023/05/30 11:14:08;;;;;;;14.73;5.75;;;;;;;17.06;59.88;102582.16;5110349;28;20362;-73
2023/05/30 11:16:46;;;;;;;16.75;6.00;;;;;;;17.17;60.48;102570.81;5092287;28;20157;-72
2023/05/30 11:19:12;;;;;;;11.50;4.75;;;;;;;17.27;59.51;102565.88;5101980;28;20037;-74
2023/05/30 11:21:57;;;;;;;11.20;5.32;;;;;;;17.39;60.48;102570.72;5109157;28;20023;-73